sensor_id;sensor_type;location;lat;lon;timestamp;pressure;altitude;pressure_sealevel;temperature;humidity
56334;BME280;42240;53.626;55.886;2023-01-27T00:00:25;79185.59;;;-145.10;100.00
56334;BME280;42240;53.626;55.886;2023-01-27T00:01:58;79197.47;;;-145.10;100.00
56334;BME280;42240;53.626;55.886;2023-01-27T00:03:31;79193.50;;;-145.10;100.00
56334;BME280;42240;53.626;55.886;2023-01-27T00:05:05;79179.66;;;-145.10;100.00
56334;BME280;42240;53.626;55.886;2023-01-27T00:06:38;79183.63;;;-145.10;100.00
56334;BME280;42240;53.626;55.886;2023-01-27T00:08:11;79171.75;;;-145.10;100.00
56334;BME280;42240;53.626;55.886;2023-01-27T00:09:45;79179.66;;;-145.10;100.00
56334;BME280;42240;53.626;55.886;2023-01-27T00:11:18;79167.78;;;-145.10;100.00
56334;BME280;42240;53.626;55.886;2023-01-27T00:13:13;79171.75;;;-145.10;100.00
56334;BME280;42240;53.626;55.886;2023-01-27T00:14:59;79183.63;;;-145.10;100.00
56334;BME280;42240;53.626;55.886;2023-01-27T00:16:32;79173.72;;;-145.10;100.00
56334;BME280;42240;53.626;55.886;2023-01-27T00:18:06;79294.44;;;-145.10;100.00
56334;BME280;42240;53.626;55.886;2023-01-27T00:19:39;79171.75;;;-145.10;100.00
56334;BME280;42240;53.626;55.886;2023-01-27T00:21:16;79169.78;;;-145.10;100.00
56334;BME280;42240;53.626;55.886;2023-01-27T00:23:13;79157.91;;;-145.10;100.00
56334;BME280;42240;53.626;55.886;2023-01-27T00:25:05;79175.72;;;-145.10;100.00
56334;BME280;42240;53.626;55.886;2023-01-27T00:26:38;79179.66;;;-145.10;100.00
56334;BME280;42240;53.626;55.886;2023-01-27T00:28:12;79191.53;;;-145.10;100.00
56334;BME280;42240;53.626;55.886;2023-01-27T00:29:54;79187.56;;;-145.10;100.00
56334;BME280;42240;53.626;55.886;2023-01-27T00:31:28;79183.63;;;-145.10;100.00
56334;BME280;42240;53.626;55.886;2023-01-27T00:33:19;79199.44;;;-145.10;100.00
56334;BME280;42240;53.626;55.886;2023-01-27T00:35:01;79193.50;;;-145.10;100.00
56334;BME280;42240;53.626;55.886;2023-01-27T00:36:35;79195.50;;;-145.10;100.00
56334;BME280;42240;53.626;55.886;2023-01-27T00:38:09;79203.41;;;-145.10;100.00
56334;BME280;42240;53.626;55.886;2023-01-27T00:39:42;79201.44;;;-145.10;100.00
56334;BME280;42240;53.626;55.886;2023-01-27T00:41:15;79203.41;;;-145.10;100.00
56334;BME280;42240;53.626;55.886;2023-01-27T00:42:51;79205.38;;;-145.10;100.00
56334;BME280;42240;53.626;55.886;2023-01-27T00:44:24;79209.34;;;-145.10;100.00
56334;BME280;42240;53.626;55.886;2023-01-27T00:45:57;79219.25;;;-145.10;100.00
56334;BME280;42240;53.626;55.886;2023-01-27T00:47:30;79219.25;;;-145.10;100.00
56334;BME280;42240;53.626;55.886;2023-01-27T00:49:03;79227.16;;;-145.10;100.00
56334;BME280;42240;53.626;55.886;2023-01-27T00:50:36;79219.25;;;-145.10;100.00
56334;BME280;42240;53.626;55.886;2023-01-27T00:52:10;79219.25;;;-145.10;100.00
56334;BME280;42240;53.626;55.886;2023-01-27T00:53:44;79223.19;;;-145.10;100.00
56334;BME280;42240;53.626;55.886;2023-01-27T00:55:17;79213.31;;;-145.10;100.00
56334;BME280;42240;53.626;55.886;2023-01-27T00:56:50;79211.31;;;-145.10;100.00
56334;BME280;42240;53.626;55.886;2023-01-27T00:58:24;79211.31;;;-145.10;100.00
56334;BME280;42240;53.626;55.886;2023-01-27T00:59:58;79211.31;;;-145.10;100.00
56334;BME280;42240;53.626;55.886;2023-01-27T01:01:31;79207.38;;;-145.10;100.00
56334;BME280;42240;53.626;55.886;2023-01-27T01:03:05;79254.84;;;-145.10;100.00
56334;BME280;42240;53.626;55.886;2023-01-27T01:04:39;79292.44;;;-145.10;100.00
56334;BME280;42240;53.626;55.886;2023-01-27T01:06:14;79217.25;;;-145.10;100.00
56334;BME280;42240;53.626;55.886;2023-01-27T01:07:47;79215.28;;;-145.10;100.00
56334;BME280;42240;53.626;55.886;2023-01-27T01:09:20;79219.25;;;-145.10;100.00
56334;BME280;42240;53.626;55.886;2023-01-27T01:10:53;79223.19;;;-145.10;100.00
56334;BME280;42240;53.626;55.886;2023-01-27T01:12:26;79219.25;;;-145.10;100.00
56334;BME280;42240;53.626;55.886;2023-01-27T01:13:59;79219.25;;;-145.10;100.00
56334;BME280;42240;53.626;55.886;2023-01-27T01:15:39;79213.31;;;-145.10;100.00
56334;BME280;42240;53.626;55.886;2023-01-27T01:17:12;79215.28;;;-145.10;100.00
56334;BME280;42240;53.626;55.886;2023-01-27T01:18:46;79227.16;;;-145.10;100.00
56334;BME280;42240;53.626;55.886;2023-01-27T01:20:19;79231.09;;;-145.10;100.00
56334;BME280;42240;53.626;55.886;2023-01-27T01:21:52;79237.03;;;-145.10;100.00
56334;BME280;42240;53.626;55.886;2023-01-27T01:23:25;79262.78;;;-145.10;100.00
56334;BME280;42240;53.626;55.886;2023-01-27T01:24:59;79248.91;;;-145.10;100.00
56334;BME280;42240;53.626;55.886;2023-01-27T01:26:33;79250.91;;;-145.10;100.00
56334;BME280;42240;53.626;55.886;2023-01-27T01:28:07;79264.75;;;-145.10;100.00
56334;BME280;42240;53.626;55.886;2023-01-27T01:29:40;79266.72;;;-145.10;100.00
56334;BME280;42240;53.626;55.886;2023-01-27T01:31:16;79274.63;;;-145.10;100.00
56334;BME280;42240;53.626;55.886;2023-01-27T01:32:50;79276.63;;;-145.10;100.00
56334;BME280;42240;53.626;55.886;2023-01-27T01:34:24;79341.91;;;-145.10;100.00
56334;BME280;42240;53.626;55.886;2023-01-27T01:36:02;79292.44;;;-145.10;100.00
56334;BME280;42240;53.626;55.886;2023-01-27T01:37:35;79300.38;;;-145.10;100.00
56334;BME280;42240;53.626;55.886;2023-01-27T01:39:09;79304.31;;;-145.10;100.00
56334;BME280;42240;53.626;55.886;2023-01-27T01:40:43;79310.25;;;-145.10;100.00
56334;BME280;42240;53.626;55.886;2023-01-27T01:42:16;79322.13;;;-145.10;100.00
56334;BME280;42240;53.626;55.886;2023-01-27T01:43:50;79314.22;;;-145.10;100.00
56334;BME280;42240;53.626;55.886;2023-01-27T01:47:05;79326.09;;;-145.10;100.00
56334;BME280;42240;53.626;55.886;2023-01-27T01:50:18;79330.03;;;-145.10;100.00
56334;BME280;42240;53.626;55.886;2023-01-27T01:52:00;79318.16;;;-145.10;100.00
56334;BME280;42240;53.626;55.886;2023-01-27T01:55:31;79326.09;;;-145.10;100.00
56334;BME280;42240;53.626;55.886;2023-01-27T01:57:20;79326.09;;;-145.10;100.00
56334;BME280;42240;53.626;55.886;2023-01-27T01:58:56;79324.09;;;-145.10;100.00
56334;BME280;42240;53.626;55.886;2023-01-27T02:00:32;79326.09;;;-145.10;100.00
56334;BME280;42240;53.626;55.886;2023-01-27T02:02:10;79314.22;;;-145.10;100.00
56334;BME280;42240;53.626;55.886;2023-01-27T02:03:48;79312.25;;;-145.10;100.00
56334;BME280;42240;53.626;55.886;2023-01-27T02:05:39;79306.31;;;-145.10;100.00
56334;BME280;42240;53.626;55.886;2023-01-27T02:07:21;79308.28;;;-145.10;100.00
56334;BME280;42240;53.626;55.886;2023-01-27T02:08:58;79318.16;;;-145.10;100.00
56334;BME280;42240;53.626;55.886;2023-01-27T02:10:33;79341.91;;;-145.10;100.00
56334;BME280;42240;53.626;55.886;2023-01-27T02:12:06;79326.09;;;-145.10;100.00
56334;BME280;42240;53.626;55.886;2023-01-27T02:13:42;79318.16;;;-145.10;100.00
56334;BME280;42240;53.626;55.886;2023-01-27T02:15:16;79318.16;;;-145.10;100.00
56334;BME280;42240;53.626;55.886;2023-01-27T02:16:51;79312.25;;;-145.10;100.00
56334;BME280;42240;53.626;55.886;2023-01-27T02:18:25;79314.22;;;-145.10;100.00
56334;BME280;42240;53.626;55.886;2023-01-27T02:21:51;79322.13;;;-145.10;100.00
56334;BME280;42240;53.626;55.886;2023-01-27T02:25:06;79310.25;;;-145.10;100.00
56334;BME280;42240;53.626;55.886;2023-01-27T02:26:43;79314.22;;;-145.10;100.00
56334;BME280;42240;53.626;55.886;2023-01-27T02:28:16;79306.31;;;-145.10;100.00
56334;BME280;42240;53.626;55.886;2023-01-27T02:29:50;79306.31;;;-145.10;100.00
56334;BME280;42240;53.626;55.886;2023-01-27T02:31:23;79328.06;;;-145.10;100.00
56334;BME280;42240;53.626;55.886;2023-01-27T02:32:56;79302.34;;;-145.10;100.00
56334;BME280;42240;53.626;55.886;2023-01-27T02:34:33;79294.44;;;-145.10;100.00
56334;BME280;42240;53.626;55.886;2023-01-27T02:36:10;79292.44;;;-145.10;100.00
56334;BME280;42240;53.626;55.886;2023-01-27T02:37:46;79294.44;;;-145.10;100.00
56334;BME280;42240;53.626;55.886;2023-01-27T02:39:22;79444.81;;;-145.10;100.00
56334;BME280;42240;53.626;55.886;2023-01-27T02:41:03;79298.38;;;-145.10;100.00
56334;BME280;42240;53.626;55.886;2023-01-27T02:42:39;79294.44;;;-145.10;100.00
56334;BME280;42240;53.626;55.886;2023-01-27T02:44:12;79298.38;;;-145.10;100.00
56334;BME280;42240;53.626;55.886;2023-01-27T02:45:46;79294.44;;;-145.10;100.00
56334;BME280;42240;53.626;55.886;2023-01-27T02:47:19;79310.25;;;-145.10;100.00
56334;BME280;42240;53.626;55.886;2023-01-27T02:48:52;79308.28;;;-145.10;100.00
56334;BME280;42240;53.626;55.886;2023-01-27T02:50:25;79306.31;;;-145.10;100.00
56334;BME280;42240;53.626;55.886;2023-01-27T02:51:58;79312.25;;;-145.10;100.00
56334;BME280;42240;53.626;55.886;2023-01-27T02:53:31;79310.25;;;-145.10;100.00
56334;BME280;42240;53.626;55.886;2023-01-27T02:55:05;79320.16;;;-145.10;100.00
56334;BME280;42240;53.626;55.886;2023-01-27T02:56:38;79324.09;;;-145.10;100.00
56334;BME280;42240;53.626;55.886;2023-01-27T02:58:12;79322.13;;;-145.10;100.00
56334;BME280;42240;53.626;55.886;2023-01-27T02:59:52;79322.13;;;-145.10;100.00
56334;BME280;42240;53.626;55.886;2023-01-27T03:01:25;79326.09;;;-145.10;100.00
56334;BME280;42240;53.626;55.886;2023-01-27T03:03:03;79328.06;;;-145.10;100.00
56334;BME280;42240;53.626;55.886;2023-01-27T03:04:35;79324.09;;;-145.10;100.00
56334;BME280;42240;53.626;55.886;2023-01-27T03:06:10;79334.00;;;-145.10;100.00
56334;BME280;42240;53.626;55.886;2023-01-27T03:07:43;79328.06;;;-145.10;100.00
56334;BME280;42240;53.626;55.886;2023-01-27T03:09:17;79322.13;;;-145.10;100.00
56334;BME280;42240;53.626;55.886;2023-01-27T03:10:53;79369.63;;;-145.10;100.00
56334;BME280;42240;53.626;55.886;2023-01-27T03:12:27;79322.13;;;-145.10;100.00
56334;BME280;42240;53.626;55.886;2023-01-27T03:14:00;79322.13;;;-145.10;100.00
56334;BME280;42240;53.626;55.886;2023-01-27T03:15:32;79322.13;;;-145.10;100.00
56334;BME280;42240;53.626;55.886;2023-01-27T03:17:24;79361.69;;;-145.10;100.00
56334;BME280;42240;53.626;55.886;2023-01-27T03:19:15;79314.22;;;-145.10;100.00
56334;BME280;42240;53.626;55.886;2023-01-27T03:20:49;79322.13;;;-145.10;100.00
56334;BME280;42240;53.626;55.886;2023-01-27T03:22:22;79320.16;;;-145.10;100.00
56334;BME280;42240;53.626;55.886;2023-01-27T03:23:55;79326.09;;;-145.10;100.00
56334;BME280;42240;53.626;55.886;2023-01-27T03:25:28;79316.19;;;-145.10;100.00
56334;BME280;42240;53.626;55.886;2023-01-27T03:27:01;79312.25;;;-145.10;100.00
56334;BME280;42240;53.626;55.886;2023-01-27T03:28:52;79324.09;;;-145.10;100.00
56334;BME280;42240;53.626;55.886;2023-01-27T03:30:48;79320.16;;;-145.10;100.00
56334;BME280;42240;53.626;55.886;2023-01-27T03:32:32;79332.03;;;-145.10;100.00
56334;BME280;42240;53.626;55.886;2023-01-27T03:34:43;79310.25;;;-145.10;100.00
56334;BME280;42240;53.626;55.886;2023-01-27T03:36:22;79306.31;;;-145.10;100.00
56334;BME280;42240;53.626;55.886;2023-01-27T03:38:15;79403.25;;;-145.10;100.00
56334;BME280;42240;53.626;55.886;2023-01-27T03:40:07;79334.00;;;-145.10;100.00
56334;BME280;42240;53.626;55.886;2023-01-27T03:41:59;79324.09;;;-145.10;100.00
56334;BME280;42240;53.626;55.886;2023-01-27T03:43:52;79337.97;;;-145.10;100.00
56334;BME280;42240;53.626;55.886;2023-01-27T03:45:47;79335.97;;;-145.10;100.00
56334;BME280;42240;53.626;55.886;2023-01-27T03:47:39;79345.88;;;-145.10;100.00
56334;BME280;42240;53.626;55.886;2023-01-27T03:49:12;79347.84;;;-145.10;100.00
56334;BME280;42240;53.626;55.886;2023-01-27T03:50:46;79353.78;;;-145.10;100.00
56334;BME280;42240;53.626;55.886;2023-01-27T03:52:24;79345.88;;;-145.10;100.00
56334;BME280;42240;53.626;55.886;2023-01-27T03:53:57;79355.78;;;-145.10;100.00
56334;BME280;42240;53.626;55.886;2023-01-27T03:55:34;79345.88;;;-145.10;100.00
56334;BME280;42240;53.626;55.886;2023-01-27T03:57:07;79351.81;;;-145.10;100.00
56334;BME280;42240;53.626;55.886;2023-01-27T03:58:40;79361.69;;;-145.10;100.00
56334;BME280;42240;53.626;55.886;2023-01-27T04:00:13;79359.72;;;-145.10;100.00
56334;BME280;42240;53.626;55.886;2023-01-27T04:01:46;79363.69;;;-145.10;100.00
56334;BME280;42240;53.626;55.886;2023-01-27T04:03:21;79355.78;;;-145.10;100.00
56334;BME280;42240;53.626;55.886;2023-01-27T04:05:12;79353.78;;;-145.10;100.00
56334;BME280;42240;53.626;55.886;2023-01-27T04:07:04;79347.84;;;-145.10;100.00
56334;BME280;42240;53.626;55.886;2023-01-27T04:08:37;79343.91;;;-145.10;100.00
56334;BME280;42240;53.626;55.886;2023-01-27T04:10:10;79347.84;;;-145.10;100.00
56334;BME280;42240;53.626;55.886;2023-01-27T04:11:43;79343.91;;;-145.10;100.00
56334;BME280;42240;53.626;55.886;2023-01-27T04:13:29;79335.97;;;-145.10;100.00
56334;BME280;42240;53.626;55.886;2023-01-27T04:15:02;79334.00;;;-145.10;100.00
56334;BME280;42240;53.626;55.886;2023-01-27T04:16:35;79413.16;;;-145.10;100.00
56334;BME280;42240;53.626;55.886;2023-01-27T04:18:09;79320.16;;;-145.10;100.00
56334;BME280;42240;53.626;55.886;2023-01-27T04:19:42;79314.22;;;-145.10;100.00
56334;BME280;42240;53.626;55.886;2023-01-27T04:21:15;79306.31;;;-145.10;100.00
56334;BME280;42240;53.626;55.886;2023-01-27T04:22:48;79308.28;;;-145.10;100.00
56334;BME280;42240;53.626;55.886;2023-01-27T04:24:21;79310.25;;;-145.10;100.00
56334;BME280;42240;53.626;55.886;2023-01-27T04:25:56;79298.38;;;-145.10;100.00
56334;BME280;42240;53.626;55.886;2023-01-27T04:27:31;79310.25;;;-145.10;100.00
56334;BME280;42240;53.626;55.886;2023-01-27T04:29:04;79353.78;;;-145.10;100.00
56334;BME280;42240;53.626;55.886;2023-01-27T04:30:38;79292.44;;;-145.10;100.00
56334;BME280;42240;53.626;55.886;2023-01-27T04:32:12;79282.56;;;-145.10;100.00
56334;BME280;42240;53.626;55.886;2023-01-27T04:33:45;79278.59;;;-145.10;100.00
56334;BME280;42240;53.626;55.886;2023-01-27T04:35:18;79282.56;;;-145.10;100.00
56334;BME280;42240;53.626;55.886;2023-01-27T04:36:57;79280.56;;;-145.10;100.00
56334;BME280;42240;53.626;55.886;2023-01-27T04:38:30;79266.72;;;-145.10;100.00
56334;BME280;42240;53.626;55.886;2023-01-27T04:40:04;79272.66;;;-145.10;100.00
56334;BME280;42240;53.626;55.886;2023-01-27T04:41:37;79282.56;;;-145.10;100.00
56334;BME280;42240;53.626;55.886;2023-01-27T04:43:10;79276.63;;;-145.10;100.00
56334;BME280;42240;53.626;55.886;2023-01-27T04:44:43;79274.63;;;-145.10;100.00
56334;BME280;42240;53.626;55.886;2023-01-27T04:46:16;79262.78;;;-145.10;100.00
56334;BME280;42240;53.626;55.886;2023-01-27T04:47:49;79288.50;;;-145.10;100.00
56334;BME280;42240;53.626;55.886;2023-01-27T04:49:22;79266.72;;;-145.10;100.00
56334;BME280;42240;53.626;55.886;2023-01-27T04:50:55;79274.63;;;-145.10;100.00
56334;BME280;42240;53.626;55.886;2023-01-27T04:52:28;79268.72;;;-145.10;100.00
56334;BME280;42240;53.626;55.886;2023-01-27T04:54:01;79270.69;;;-145.10;100.00
56334;BME280;42240;53.626;55.886;2023-01-27T04:55:35;79268.72;;;-145.10;100.00
56334;BME280;42240;53.626;55.886;2023-01-27T04:57:08;79266.72;;;-145.10;100.00
56334;BME280;42240;53.626;55.886;2023-01-27T04:58:42;79266.72;;;-145.10;100.00
56334;BME280;42240;53.626;55.886;2023-01-27T05:00:15;79264.75;;;-145.10;100.00
56334;BME280;42240;53.626;55.886;2023-01-27T05:01:48;79266.72;;;-145.10;100.00
56334;BME280;42240;53.626;55.886;2023-01-27T05:03:22;79244.97;;;-145.10;100.00
56334;BME280;42240;53.626;55.886;2023-01-27T05:04:55;79241.00;;;-145.10;100.00
56334;BME280;42240;53.626;55.886;2023-01-27T05:06:28;79239.03;;;-145.10;100.00
56334;BME280;42240;53.626;55.886;2023-01-27T05:08:05;79310.25;;;-145.10;100.00
56334;BME280;42240;53.626;55.886;2023-01-27T05:09:38;79227.16;;;-145.10;100.00
56334;BME280;42240;53.626;55.886;2023-01-27T05:11:12;79254.84;;;-145.10;100.00
56334;BME280;42240;53.626;55.886;2023-01-27T05:12:45;79227.16;;;-145.10;100.00
56334;BME280;42240;53.626;55.886;2023-01-27T05:14:18;79205.38;;;-145.10;100.00
56334;BME280;42240;53.626;55.886;2023-01-27T05:16:05;79199.44;;;-145.10;100.00
56334;BME280;42240;53.626;55.886;2023-01-27T05:17:39;79193.50;;;-145.10;100.00
56334;BME280;42240;53.626;55.886;2023-01-27T05:19:12;79185.59;;;-145.10;100.00
56334;BME280;42240;53.626;55.886;2023-01-27T05:20:45;79163.84;;;-145.10;100.00
56334;BME280;42240;53.626;55.886;2023-01-27T05:22:18;79262.78;;;-145.10;100.00
56334;BME280;42240;53.626;55.886;2023-01-27T05:23:51;79171.75;;;-145.10;100.00
56334;BME280;42240;53.626;55.886;2023-01-27T05:25:24;79177.69;;;-145.10;100.00
56334;BME280;42240;53.626;55.886;2023-01-27T05:26:57;79169.78;;;-145.10;100.00
56334;BME280;42240;53.626;55.886;2023-01-27T05:28:30;79175.72;;;-145.10;100.00
56334;BME280;42240;53.626;55.886;2023-01-27T05:30:04;79149.97;;;-145.10;100.00
56334;BME280;42240;53.626;55.886;2023-01-27T05:31:37;79149.97;;;-145.10;100.00
56334;BME280;42240;53.626;55.886;2023-01-27T05:33:10;79171.75;;;-145.10;100.00
56334;BME280;42240;53.626;55.886;2023-01-27T05:34:43;79167.78;;;-145.10;100.00
56334;BME280;42240;53.626;55.886;2023-01-27T05:36:18;79175.72;;;-145.10;100.00
56334;BME280;42240;53.626;55.886;2023-01-27T05:37:51;79163.84;;;-145.10;100.00
56334;BME280;42240;53.626;55.886;2023-01-27T05:39:24;79183.63;;;-145.10;100.00
56334;BME280;42240;53.626;55.886;2023-01-27T05:40:59;79155.91;;;-145.10;100.00
56334;BME280;42240;53.626;55.886;2023-01-27T05:42:33;79157.91;;;-145.10;100.00
56334;BME280;42240;53.626;55.886;2023-01-27T05:44:09;79209.34;;;-145.10;100.00
56334;BME280;42240;53.626;55.886;2023-01-27T05:45:43;79140.09;;;-145.10;100.00
56334;BME280;42240;53.626;55.886;2023-01-27T05:47:16;79134.16;;;-145.10;100.00
56334;BME280;42240;53.626;55.886;2023-01-27T05:48:52;79132.19;;;-145.10;100.00
56334;BME280;42240;53.626;55.886;2023-01-27T05:50:25;79120.31;;;-145.10;100.00
56334;BME280;42240;53.626;55.886;2023-01-27T05:51:58;79116.34;;;-145.10;100.00
56334;BME280;42240;53.626;55.886;2023-01-27T05:53:32;79098.53;;;-145.10;100.00
56334;BME280;42240;53.626;55.886;2023-01-27T05:55:05;79104.47;;;-145.10;100.00
56334;BME280;42240;53.626;55.886;2023-01-27T05:56:38;79102.50;;;-145.10;100.00
56334;BME280;42240;53.626;55.886;2023-01-27T05:58:12;79084.69;;;-145.10;100.00
56334;BME280;42240;53.626;55.886;2023-01-27T05:59:45;79096.56;;;-145.10;100.00
56334;BME280;42240;53.626;55.886;2023-01-27T06:01:21;79102.50;;;-145.10;100.00
56334;BME280;42240;53.626;55.886;2023-01-27T06:02:54;79078.75;;;-145.10;100.00
56334;BME280;42240;53.626;55.886;2023-01-27T06:04:27;79068.84;;;-145.10;100.00
56334;BME280;42240;53.626;55.886;2023-01-27T06:06:00;79037.19;;;-145.10;100.00
56334;BME280;42240;53.626;55.886;2023-01-27T06:07:33;79021.38;;;-145.10;100.00
56334;BME280;42240;53.626;55.886;2023-01-27T06:09:06;79037.19;;;-145.10;100.00
56334;BME280;42240;53.626;55.886;2023-01-27T06:10:39;79017.41;;;-145.10;100.00
56334;BME280;42240;53.626;55.886;2023-01-27T06:12:12;79017.41;;;-145.10;100.00
56334;BME280;42240;53.626;55.886;2023-01-27T06:13:46;78997.63;;;-145.10;100.00
56334;BME280;42240;53.626;55.886;2023-01-27T06:15:19;78997.63;;;-145.10;100.00
56334;BME280;42240;53.626;55.886;2023-01-27T06:16:52;78967.94;;;-145.10;100.00
56334;BME280;42240;53.626;55.886;2023-01-27T06:18:25;78967.94;;;-145.10;100.00
56334;BME280;42240;53.626;55.886;2023-01-27T06:19:58;78962.00;;;-145.10;99.11
56334;BME280;42240;53.626;55.886;2023-01-27T06:21:31;78928.38;;;-145.10;98.64
56334;BME280;42240;53.626;55.886;2023-01-27T06:23:05;78906.63;;;-145.10;98.05
56334;BME280;42240;53.626;55.886;2023-01-27T06:24:39;78874.97;;;-145.10;97.47
56334;BME280;42240;53.626;55.886;2023-01-27T06:26:14;78869.03;;;-145.10;95.71
56334;BME280;42240;53.626;55.886;2023-01-27T06:27:47;78831.44;;;-145.10;95.37
56334;BME280;42240;53.626;55.886;2023-01-27T06:29:20;78888.81;;;-145.10;94.00
56334;BME280;42240;53.626;55.886;2023-01-27T06:30:54;78867.03;;;-145.10;94.12
56334;BME280;42240;53.626;55.886;2023-01-27T06:32:27;78871.00;;;-145.10;93.26
56334;BME280;42240;53.626;55.886;2023-01-27T06:33:59;78835.38;;;-145.10;92.53
56334;BME280;42240;53.626;55.886;2023-01-27T06:35:34;78787.91;;;-145.10;92.62
56334;BME280;42240;53.626;55.886;2023-01-27T06:37:07;78803.72;;;-145.10;91.10
56334;BME280;42240;53.626;55.886;2023-01-27T06:38:41;78942.22;;;-145.10;91.00
56334;BME280;42240;53.626;55.886;2023-01-27T06:40:14;78780.00;;;-145.10;91.00
56334;BME280;42240;53.626;55.886;2023-01-27T06:41:48;78793.84;;;-145.10;89.61
56334;BME280;42240;53.626;55.886;2023-01-27T06:43:21;78780.00;;;-145.10;90.09
56334;BME280;42240;53.626;55.886;2023-01-27T06:44:54;78766.13;;;-145.10;89.19
56334;BME280;42240;53.626;55.886;2023-01-27T06:46:27;78793.84;;;-145.10;88.81
56334;BME280;42240;53.626;55.886;2023-01-27T06:48:00;78823.53;;;-145.10;88.34
56334;BME280;42240;53.626;55.886;2023-01-27T06:49:34;78795.81;;;-145.10;88.76
56334;BME280;42240;53.626;55.886;2023-01-27T06:51:07;78823.53;;;-145.10;87.47
56334;BME280;42240;53.626;55.886;2023-01-27T06:52:40;78823.53;;;-145.10;87.92
56334;BME280;42240;53.626;55.886;2023-01-27T06:54:13;78831.44;;;-145.10;88.71
56334;BME280;42240;53.626;55.886;2023-01-27T06:55:46;78823.53;;;-145.10;87.98
56334;BME280;42240;53.626;55.886;2023-01-27T06:57:19;78817.59;;;-145.10;88.11
56334;BME280;42240;53.626;55.886;2023-01-27T06:58:51;78835.38;;;-145.10;87.59
56334;BME280;42240;53.626;55.886;2023-01-27T07:00:24;78827.47;;;-145.10;88.59
56334;BME280;42240;53.626;55.886;2023-01-27T07:01:58;78871.00;;;-145.10;88.11
56334;BME280;42240;53.626;55.886;2023-01-27T07:03:31;78845.28;;;-145.10;88.41
56334;BME280;42240;53.626;55.886;2023-01-27T07:05:04;78827.47;;;-145.10;88.31
56334;BME280;42240;53.626;55.886;2023-01-27T07:06:37;78829.44;;;-145.10;88.54
56334;BME280;42240;53.626;55.886;2023-01-27T07:08:10;78851.22;;;-145.10;88.85
56334;BME280;42240;53.626;55.886;2023-01-27T07:09:43;78880.91;;;-145.10;88.56
56334;BME280;42240;53.626;55.886;2023-01-27T07:11:24;78906.63;;;-145.10;90.38
56334;BME280;42240;53.626;55.886;2023-01-27T07:13:04;78892.75;;;-145.10;90.43
56334;BME280;42240;53.626;55.886;2023-01-27T07:14:38;78904.63;;;-145.10;90.47
56334;BME280;42240;53.626;55.886;2023-01-27T07:16:11;79007.53;;;-145.10;91.01
56334;BME280;42240;53.626;55.886;2023-01-27T07:17:44;78958.06;;;-145.10;91.00
56334;BME280;42240;53.626;55.886;2023-01-27T07:19:17;78932.34;;;-145.10;91.99
56334;BME280;42240;53.626;55.886;2023-01-27T07:20:50;78900.69;;;-145.10;92.30
56334;BME280;42240;53.626;55.886;2023-01-27T07:22:24;78880.91;;;-145.10;92.65
56334;BME280;42240;53.626;55.886;2023-01-27T07:23:57;78886.81;;;-145.10;91.32
56334;BME280;42240;53.626;55.886;2023-01-27T07:25:32;78869.03;;;-145.10;91.56
56334;BME280;42240;53.626;55.886;2023-01-27T07:27:06;78906.63;;;-145.10;92.52
56334;BME280;42240;53.626;55.886;2023-01-27T07:28:39;78888.81;;;-145.10;92.31
56334;BME280;42240;53.626;55.886;2023-01-27T07:30:12;78871.00;;;-145.10;92.59
56334;BME280;42240;53.626;55.886;2023-01-27T07:31:46;78890.78;;;-145.10;92.15
56334;BME280;42240;53.626;55.886;2023-01-27T07:33:19;78855.16;;;-145.10;92.00
56334;BME280;42240;53.626;55.886;2023-01-27T07:34:52;78847.25;;;-145.10;91.92
56334;BME280;42240;53.626;55.886;2023-01-27T07:36:25;78839.34;;;-145.10;90.97
56334;BME280;42240;53.626;55.886;2023-01-27T07:37:58;78878.91;;;-145.10;90.45
56334;BME280;42240;53.626;55.886;2023-01-27T07:39:32;78857.16;;;-145.10;91.99
56334;BME280;42240;53.626;55.886;2023-01-27T07:41:07;78857.16;;;-145.10;91.34
56334;BME280;42240;53.626;55.886;2023-01-27T07:42:40;78882.88;;;-145.10;91.49
56334;BME280;42240;53.626;55.886;2023-01-27T07:44:13;78871.00;;;-145.10;92.63
56334;BME280;42240;53.626;55.886;2023-01-27T07:45:47;78855.16;;;-145.10;92.22
56334;BME280;42240;53.626;55.886;2023-01-27T07:47:20;78849.25;;;-145.10;92.79
56334;BME280;42240;53.626;55.886;2023-01-27T07:48:54;78833.41;;;-145.10;92.27
56334;BME280;42240;53.626;55.886;2023-01-27T07:50:28;78823.53;;;-145.10;93.14
56334;BME280;42240;53.626;55.886;2023-01-27T07:52:01;78805.72;;;-145.10;92.56
56334;BME280;42240;53.626;55.886;2023-01-27T07:53:34;78815.59;;;-145.10;92.48
56334;BME280;42240;53.626;55.886;2023-01-27T07:55:07;78795.81;;;-145.10;92.26
56334;BME280;42240;53.626;55.886;2023-01-27T07:56:40;78823.53;;;-145.10;91.24
56334;BME280;42240;53.626;55.886;2023-01-27T07:58:13;78827.47;;;-145.10;91.10
56334;BME280;42240;53.626;55.886;2023-01-27T07:59:47;78813.63;;;-145.10;91.25
56334;BME280;42240;53.626;55.886;2023-01-27T08:01:20;78791.88;;;-145.10;90.75
56334;BME280;42240;53.626;55.886;2023-01-27T08:02:54;78780.00;;;-145.10;90.39
56334;BME280;42240;53.626;55.886;2023-01-27T08:04:27;78764.16;;;-145.10;90.63
56334;BME280;42240;53.626;55.886;2023-01-27T08:06:06;78778.00;;;-145.10;90.46
56334;BME280;42240;53.626;55.886;2023-01-27T08:07:39;78781.97;;;-145.10;90.53
56334;BME280;42240;53.626;55.886;2023-01-27T08:09:12;78764.16;;;-145.10;90.34